sensor_id;sensor_type;location;lat;lon;timestamp;P1;durP1;ratioP1;P2;durP2;ratioP2
11113;SDS011;5610;52.154;9.198;2022-11-15T00:00:38;12.23;;;11.03;;
11113;SDS011;5610;52.154;9.198;2022-11-15T00:03:43;11.47;;;10.47;;
11113;SDS011;5610;52.154;9.198;2022-11-15T00:06:47;10.57;;;9.50;;
11113;SDS011;5610;52.154;9.198;2022-11-15T00:09:51;10.97;;;9.87;;
11113;SDS011;5610;52.154;9.198;2022-11-15T00:12:54;11.50;;;10.40;;
11113;SDS011;5610;52.154;9.198;2022-11-15T00:16:00;10.90;;;9.90;;
11113;SDS011;5610;52.154;9.198;2022-11-15T00:19:05;11.33;;;9.87;;
11113;SDS011;5610;52.154;9.198;2022-11-15T00:22:09;11.40;;;10.30;;
11113;SDS011;5610;52.154;9.198;2022-11-15T00:25:13;10.83;;;9.63;;
11113;SDS011;5610;52.154;9.198;2022-11-15T00:28:17;11.27;;;9.77;;
11113;SDS011;5610;52.154;9.198;2022-11-15T00:31:23;11.60;;;10.50;;
11113;SDS011;5610;52.154;9.198;2022-11-15T00:34:27;10.37;;;9.37;;
11113;SDS011;5610;52.154;9.198;2022-11-15T00:37:31;10.57;;;9.47;;
11113;SDS011;5610;52.154;9.198;2022-11-15T00:40:35;11.50;;;10.30;;
11113;SDS011;5610;52.154;9.198;2022-11-15T00:43:40;10.93;;;9.73;;
11113;SDS011;5610;52.154;9.198;2022-11-15T00:46:47;12.33;;;10.90;;
11113;SDS011;5610;52.154;9.198;2022-11-15T00:49:51;13.70;;;9.77;;
11113;SDS011;5610;52.154;9.198;2022-11-15T00:52:55;13.13;;;10.43;;
11113;SDS011;5610;52.154;9.198;2022-11-15T00:56:00;12.33;;;11.23;;
11113;SDS011;5610;52.154;9.198;2022-11-15T00:59:03;11.33;;;10.23;;
11113;SDS011;5610;52.154;9.198;2022-11-15T01:02:09;12.03;;;10.63;;
11113;SDS011;5610;52.154;9.198;2022-11-15T01:05:13;12.30;;;11.00;;
11113;SDS011;5610;52.154;9.198;2022-11-15T01:08:17;12.40;;;10.67;;
11113;SDS011;5610;52.154;9.198;2022-11-15T01:11:21;11.83;;;10.70;;
11113;SDS011;5610;52.154;9.198;2022-11-15T01:14:26;15.77;;;11.10;;
11113;SDS011;5610;52.154;9.198;2022-11-15T01:17:31;11.93;;;10.83;;
11113;SDS011;5610;52.154;9.198;2022-11-15T01:20:38;13.60;;;11.20;;
11113;SDS011;5610;52.154;9.198;2022-11-15T01:23:43;15.73;;;11.97;;
11113;SDS011;5610;52.154;9.198;2022-11-15T01:26:47;13.60;;;11.83;;
11113;SDS011;5610;52.154;9.198;2022-11-15T01:29:51;12.90;;;11.60;;
11113;SDS011;5610;52.154;9.198;2022-11-15T01:32:57;13.43;;;11.57;;
11113;SDS011;5610;52.154;9.198;2022-11-15T01:36:03;17.03;;;11.97;;
11113;SDS011;5610;52.154;9.198;2022-11-15T01:39:07;12.53;;;11.23;;
11113;SDS011;5610;52.154;9.198;2022-11-15T01:42:12;15.63;;;12.07;;
11113;SDS011;5610;52.154;9.198;2022-11-15T01:45:16;15.17;;;10.97;;
11113;SDS011;5610;52.154;9.198;2022-11-15T01:48:22;15.20;;;12.10;;
11113;SDS011;5610;52.154;9.198;2022-11-15T01:51:30;12.80;;;11.50;;
11113;SDS011;5610;52.154;9.198;2022-11-15T01:54:37;12.50;;;11.30;;
11113;SDS011;5610;52.154;9.198;2022-11-15T01:57:41;13.37;;;11.97;;
11113;SDS011;5610;52.154;9.198;2022-11-15T02:00:49;14.93;;;11.93;;
11113;SDS011;5610;52.154;9.198;2022-11-15T02:03:56;13.40;;;10.63;;
11113;SDS011;5610;52.154;9.198;2022-11-15T02:07:03;16.20;;;12.00;;
11113;SDS011;5610;52.154;9.198;2022-11-15T02:10:09;13.40;;;11.80;;
11113;SDS011;5610;52.154;9.198;2022-11-15T02:13:15;12.70;;;11.40;;
11113;SDS011;5610;52.154;9.198;2022-11-15T02:16:22;17.00;;;11.33;;
11113;SDS011;5610;52.154;9.198;2022-11-15T02:23:19;12.70;;;11.47;;
11113;SDS011;5610;52.154;9.198;2022-11-15T02:26:50;12.33;;;11.17;;
11113;SDS011;5610;52.154;9.198;2022-11-15T02:30:23;14.97;;;11.40;;
11113;SDS011;5610;52.154;9.198;2022-11-15T02:33:32;11.57;;;10.47;;
11113;SDS011;5610;52.154;9.198;2022-11-15T02:36:43;15.13;;;11.37;;
11113;SDS011;5610;52.154;9.198;2022-11-15T02:39:59;15.30;;;11.40;;
11113;SDS011;5610;52.154;9.198;2022-11-15T02:43:10;13.00;;;11.80;;
11113;SDS011;5610;52.154;9.198;2022-11-15T02:46:35;14.40;;;12.90;;
11113;SDS011;5610;52.154;9.198;2022-11-15T02:50:01;12.60;;;11.47;;
11113;SDS011;5610;52.154;9.198;2022-11-15T02:53:09;13.53;;;12.07;;
11113;SDS011;5610;52.154;9.198;2022-11-15T02:56:13;13.83;;;12.13;;
11113;SDS011;5610;52.154;9.198;2022-11-15T02:59:20;14.90;;;13.40;;
11113;SDS011;5610;52.154;9.198;2022-11-15T03:06:26;18.40;;;15.23;;
11113;SDS011;5610;52.154;9.198;2022-11-15T03:09:39;21.77;;;16.73;;
11113;SDS011;5610;52.154;9.198;2022-11-15T03:12:51;17.60;;;15.90;;
11113;SDS011;5610;52.154;9.198;2022-11-15T03:16:02;16.97;;;13.47;;
11113;SDS011;5610;52.154;9.198;2022-11-15T03:19:10;15.57;;;13.97;;
11113;SDS011;5610;52.154;9.198;2022-11-15T03:22:19;16.33;;;14.63;;
11113;SDS011;5610;52.154;9.198;2022-11-15T03:25:24;16.17;;;14.47;;
11113;SDS011;5610;52.154;9.198;2022-11-15T03:28:32;15.47;;;13.70;;
11113;SDS011;5610;52.154;9.198;2022-11-15T03:31:41;16.33;;;14.23;;
11113;SDS011;5610;52.154;9.198;2022-11-15T03:34:51;18.50;;;14.73;;
11113;SDS011;5610;52.154;9.198;2022-11-15T03:38:08;14.70;;;13.30;;
11113;SDS011;5610;52.154;9.198;2022-11-15T03:41:19;17.30;;;14.93;;
11113;SDS011;5610;52.154;9.198;2022-11-15T03:44:31;15.97;;;13.83;;
11113;SDS011;5610;52.154;9.198;2022-11-15T03:47:41;14.37;;;12.03;;
11113;SDS011;5610;52.154;9.198;2022-11-15T03:50:50;13.67;;;12.27;;
11113;SDS011;5610;52.154;9.198;2022-11-15T03:53:56;16.93;;;13.40;;
11113;SDS011;5610;52.154;9.198;2022-11-15T03:57:00;14.97;;;13.37;;
11113;SDS011;5610;52.154;9.198;2022-11-15T04:00:05;15.53;;;13.93;;
11113;SDS011;5610;52.154;9.198;2022-11-15T04:03:10;13.53;;;12.17;;
11113;SDS011;5610;52.154;9.198;2022-11-15T04:06:14;13.20;;;11.83;;
11113;SDS011;5610;52.154;9.198;2022-11-15T04:09:20;14.27;;;12.07;;
11113;SDS011;5610;52.154;9.198;2022-11-15T04:12:24;14.53;;;12.90;;
11113;SDS011;5610;52.154;9.198;2022-11-15T04:15:34;14.63;;;13.17;;
11113;SDS011;5610;52.154;9.198;2022-11-15T04:18:39;13.50;;;12.30;;
11113;SDS011;5610;52.154;9.198;2022-11-15T04:21:43;14.90;;;11.60;;
11113;SDS011;5610;52.154;9.198;2022-11-15T04:25:06;14.10;;;12.43;;
11113;SDS011;5610;52.154;9.198;2022-11-15T04:28:10;13.80;;;11.50;;
11113;SDS011;5610;52.154;9.198;2022-11-15T04:31:15;12.10;;;10.50;;
11113;SDS011;5610;52.154;9.198;2022-11-15T04:34:19;14.77;;;11.70;;
11113;SDS011;5610;52.154;9.198;2022-11-15T04:37:23;12.23;;;10.47;;
11113;SDS011;5610;52.154;9.198;2022-11-15T04:40:29;11.17;;;10.00;;
11113;SDS011;5610;52.154;9.198;2022-11-15T04:43:34;11.60;;;10.40;;
11113;SDS011;5610;52.154;9.198;2022-11-15T04:46:38;12.47;;;11.17;;
11113;SDS011;5610;52.154;9.198;2022-11-15T04:49:42;12.43;;;10.60;;
11113;SDS011;5610;52.154;9.198;2022-11-15T04:52:49;11.73;;;10.13;;
11113;SDS011;5610;52.154;9.198;2022-11-15T04:55:57;10.67;;;9.60;;
11113;SDS011;5610;52.154;9.198;2022-11-15T04:59:01;11.30;;;10.10;;
11113;SDS011;5610;52.154;9.198;2022-11-15T05:02:05;12.20;;;9.77;;
11113;SDS011;5610;52.154;9.198;2022-11-15T05:05:09;11.27;;;9.60;;
11113;SDS011;5610;52.154;9.198;2022-11-15T05:08:13;10.47;;;9.50;;
11113;SDS011;5610;52.154;9.198;2022-11-15T05:11:18;9.00;;;8.20;;
11113;SDS011;5610;52.154;9.198;2022-11-15T05:14:22;11.40;;;8.83;;
11113;SDS011;5610;52.154;9.198;2022-11-15T05:17:27;9.17;;;8.30;;
11113;SDS011;5610;52.154;9.198;2022-11-15T05:20:31;9.33;;;8.40;;
11113;SDS011;5610;52.154;9.198;2022-11-15T05:23:35;8.90;;;8.10;;
11113;SDS011;5610;52.154;9.198;2022-11-15T05:26:41;10.37;;;9.37;;
11113;SDS011;5610;52.154;9.198;2022-11-15T05:29:45;8.43;;;7.53;;
11113;SDS011;5610;52.154;9.198;2022-11-15T05:32:49;9.30;;;7.90;;
11113;SDS011;5610;52.154;9.198;2022-11-15T05:35:54;8.87;;;7.97;;
11113;SDS011;5610;52.154;9.198;2022-11-15T05:39:04;9.73;;;8.20;;
11113;SDS011;5610;52.154;9.198;2022-11-15T05:42:11;9.37;;;8.10;;
11113;SDS011;5610;52.154;9.198;2022-11-15T05:45:17;8.20;;;7.30;;
11113;SDS011;5610;52.154;9.198;2022-11-15T05:48:21;8.80;;;7.90;;
11113;SDS011;5610;52.154;9.198;2022-11-15T05:51:25;8.57;;;7.70;;
11113;SDS011;5610;52.154;9.198;2022-11-15T05:54:32;8.00;;;7.30;;
11113;SDS011;5610;52.154;9.198;2022-11-15T05:57:39;6.87;;;6.27;;
11113;SDS011;5610;52.154;9.198;2022-11-15T06:00:44;8.00;;;7.30;;
11113;SDS011;5610;52.154;9.198;2022-11-15T06:03:48;8.30;;;7.60;;
11113;SDS011;5610;52.154;9.198;2022-11-15T06:06:52;11.90;;;7.43;;
11113;SDS011;5610;52.154;9.198;2022-11-15T06:09:56;11.80;;;10.20;;
11113;SDS011;5610;52.154;9.198;2022-11-15T06:13:02;10.40;;;8.10;;
11113;SDS011;5610;52.154;9.198;2022-11-15T06:16:08;9.03;;;7.70;;
11113;SDS011;5610;52.154;9.198;2022-11-15T06:19:12;8.10;;;7.30;;
11113;SDS011;5610;52.154;9.198;2022-11-15T06:22:16;9.27;;;7.50;;
11113;SDS011;5610;52.154;9.198;2022-11-15T06:25:20;8.33;;;7.27;;
11113;SDS011;5610;52.154;9.198;2022-11-15T06:28:25;7.40;;;6.80;;
11113;SDS011;5610;52.154;9.198;2022-11-15T06:31:32;7.67;;;6.97;;
11113;SDS011;5610;52.154;9.198;2022-11-15T06:34:37;8.40;;;6.93;;
11113;SDS011;5610;52.154;9.198;2022-11-15T06:37:41;10.10;;;7.30;;
11113;SDS011;5610;52.154;9.198;2022-11-15T06:40:45;7.63;;;6.90;;
11113;SDS011;5610;52.154;9.198;2022-11-15T06:43:50;7.80;;;7.00;;
11113;SDS011;5610;52.154;9.198;2022-11-15T06:46:54;9.17;;;7.60;;
11113;SDS011;5610;52.154;9.198;2022-11-15T06:49:58;7.83;;;7.03;;
11113;SDS011;5610;52.154;9.198;2022-11-15T06:53:03;8.03;;;6.43;;
11113;SDS011;5610;52.154;9.198;2022-11-15T06:56:07;6.83;;;6.13;;
11113;SDS011;5610;52.154;9.198;2022-11-15T06:59:13;7.90;;;6.37;;
11113;SDS011;5610;52.154;9.198;2022-11-15T07:02:17;7.43;;;6.70;;
11113;SDS011;5610;52.154;9.198;2022-11-15T07:05:22;7.40;;;6.70;;
11113;SDS011;5610;52.154;9.198;2022-11-15T07:08:26;6.90;;;6.20;;
11113;SDS011;5610;52.154;9.198;2022-11-15T07:11:32;7.37;;;6.50;;
11113;SDS011;5610;52.154;9.198;2022-11-15T07:14:38;9.17;;;8.03;;
11113;SDS011;5610;52.154;9.198;2022-11-15T07:17:42;7.70;;;7.00;;
11113;SDS011;5610;52.154;9.198;2022-11-15T07:20:46;7.17;;;6.50;;
11113;SDS011;5610;52.154;9.198;2022-11-15T07:23:51;6.90;;;5.90;;
11113;SDS011;5610;52.154;9.198;2022-11-15T07:26:55;6.97;;;6.37;;
11113;SDS011;5610;52.154;9.198;2022-11-15T07:30:01;7.63;;;6.93;;
11113;SDS011;5610;52.154;9.198;2022-11-15T07:33:05;7.10;;;6.40;;
11113;SDS011;5610;52.154;9.198;2022-11-15T07:36:09;6.77;;;6.07;;
11113;SDS011;5610;52.154;9.198;2022-11-15T07:39:14;7.17;;;6.57;;
11113;SDS011;5610;52.154;9.198;2022-11-15T07:42:19;7.90;;;5.73;;
11113;SDS011;5610;52.154;9.198;2022-11-15T07:45:42;7.37;;;6.03;;
11113;SDS011;5610;52.154;9.198;2022-11-15T07:48:48;8.53;;;6.80;;
11113;SDS011;5610;52.154;9.198;2022-11-15T07:51:52;7.50;;;6.57;;
11113;SDS011;5610;52.154;9.198;2022-11-15T07:54:56;10.27;;;7.63;;
11113;SDS011;5610;52.154;9.198;2022-11-15T07:58:00;9.40;;;7.00;;
11113;SDS011;5610;52.154;9.198;2022-11-15T08:01:07;10.27;;;7.67;;
11113;SDS011;5610;52.154;9.198;2022-11-15T08:04:13;12.60;;;6.83;;
11113;SDS011;5610;52.154;9.198;2022-11-15T08:07:17;10.27;;;7.43;;
11113;SDS011;5610;52.154;9.198;2022-11-15T08:10:21;7.20;;;6.20;;
11113;SDS011;5610;52.154;9.198;2022-11-15T08:13:25;8.03;;;6.27;;
11113;SDS011;5610;52.154;9.198;2022-11-15T08:16:31;7.20;;;5.73;;
11113;SDS011;5610;52.154;9.198;2022-11-15T08:19:35;7.00;;;6.33;;
11113;SDS011;5610;52.154;9.198;2022-11-15T08:22:39;6.13;;;5.50;;
11113;SDS011;5610;52.154;9.198;2022-11-15T08:25:44;8.30;;;5.67;;
11113;SDS011;5610;52.154;9.198;2022-11-15T08:28:48;6.23;;;4.70;;
11113;SDS011;5610;52.154;9.198;2022-11-15T08:31:55;7.20;;;6.07;;
11113;SDS011;5610;52.154;9.198;2022-11-15T08:34:59;5.20;;;4.73;;
11113;SDS011;5610;52.154;9.198;2022-11-15T08:38:03;6.70;;;5.07;;
11113;SDS011;5610;52.154;9.198;2022-11-15T08:41:10;5.90;;;5.30;;
11113;SDS011;5610;52.154;9.198;2022-11-15T08:44:16;5.57;;;5.00;;
11113;SDS011;5610;52.154;9.198;2022-11-15T08:47:22;4.60;;;4.20;;
11113;SDS011;5610;52.154;9.198;2022-11-15T08:50:26;4.90;;;4.50;;
11113;SDS011;5610;52.154;9.198;2022-11-15T08:53:30;5.70;;;4.47;;
11113;SDS011;5610;52.154;9.198;2022-11-15T08:56:34;4.97;;;4.47;;
11113;SDS011;5610;52.154;9.198;2022-11-15T08:59:38;7.53;;;4.13;;
11113;SDS011;5610;52.154;9.198;2022-11-15T09:02:44;4.80;;;4.10;;
11113;SDS011;5610;52.154;9.198;2022-11-15T09:05:48;6.30;;;4.17;;
11113;SDS011;5610;52.154;9.198;2022-11-15T09:08:52;5.10;;;4.27;;
11113;SDS011;5610;52.154;9.198;2022-11-15T09:11:56;4.60;;;3.70;;
11113;SDS011;5610;52.154;9.198;2022-11-15T09:15:01;4.97;;;4.03;;
11113;SDS011;5610;52.154;9.198;2022-11-15T09:18:06;4.40;;;4.00;;
11113;SDS011;5610;52.154;9.198;2022-11-15T09:21:11;4.33;;;3.93;;
11113;SDS011;5610;52.154;9.198;2022-11-15T09:24:16;4.33;;;4.03;;
11113;SDS011;5610;52.154;9.198;2022-11-15T09:27:20;4.60;;;3.70;;
11113;SDS011;5610;52.154;9.198;2022-11-15T09:30:24;3.67;;;3.37;;
11113;SDS011;5610;52.154;9.198;2022-11-15T09:33:30;3.67;;;3.37;;
11113;SDS011;5610;52.154;9.198;2022-11-15T09:36:34;5.20;;;3.50;;
11113;SDS011;5610;52.154;9.198;2022-11-15T09:39:39;3.70;;;3.40;;
11113;SDS011;5610;52.154;9.198;2022-11-15T09:42:46;3.20;;;2.90;;
11113;SDS011;5610;52.154;9.198;2022-11-15T09:46:02;3.67;;;3.37;;
11113;SDS011;5610;52.154;9.198;2022-11-15T09:49:23;3.47;;;3.17;;
11113;SDS011;5610;52.154;9.198;2022-11-15T09:52:23;3.07;;;2.77;;
11113;SDS011;5610;52.154;9.198;2022-11-15T09:55:09;3.00;;;2.70;;
11113;SDS011;5610;52.154;9.198;2022-11-15T09:58:00;2.60;;;2.40;;
11113;SDS011;5610;52.154;9.198;2022-11-15T10:00:50;3.50;;;3.13;;
11113;SDS011;5610;52.154;9.198;2022-11-15T10:03:38;4.60;;;2.93;;
11113;SDS011;5610;52.154;9.198;2022-11-15T10:06:26;2.87;;;2.67;;
11113;SDS011;5610;52.154;9.198;2022-11-15T10:09:13;3.23;;;2.53;;
11113;SDS011;5610;52.154;9.198;2022-11-15T10:12:02;4.20;;;2.80;;
11113;SDS011;5610;52.154;9.198;2022-11-15T10:14:48;3.17;;;2.83;;
11113;SDS011;5610;52.154;9.198;2022-11-15T10:17:44;2.93;;;2.63;;
11113;SDS011;5610;52.154;9.198;2022-11-15T10:20:46;3.90;;;2.73;;
11113;SDS011;5610;52.154;9.198;2022-11-15T10:23:34;3.20;;;2.13;;
11113;SDS011;5610;52.154;9.198;2022-11-15T10:26:20;2.93;;;2.63;;
11113;SDS011;5610;52.154;9.198;2022-11-15T10:29:06;2.43;;;2.23;;
11113;SDS011;5610;52.154;9.198;2022-11-15T10:31:51;4.60;;;2.90;;
11113;SDS011;5610;52.154;9.198;2022-11-15T10:34:37;4.13;;;2.97;;
11113;SDS011;5610;52.154;9.198;2022-11-15T10:37:27;3.50;;;2.10;;
11113;SDS011;5610;52.154;9.198;2022-11-15T10:40:16;6.50;;;2.67;;
11113;SDS011;5610;52.154;9.198;2022-11-15T10:43:04;3.23;;;2.93;;
11113;SDS011;5610;52.154;9.198;2022-11-15T10:45:57;3.07;;;2.80;;
11113;SDS011;5610;52.154;9.198;2022-11-15T10:49:11;2.90;;;2.70;;
11113;SDS011;5610;52.154;9.198;2022-11-15T10:51:59;3.30;;;2.73;;
11113;SDS011;5610;52.154;9.198;2022-11-15T10:54:48;2.47;;;2.23;;
11113;SDS011;5610;52.154;9.198;2022-11-15T10:57:38;4.10;;;2.30;;
11113;SDS011;5610;52.154;9.198;2022-11-15T11:00:28;4.47;;;2.57;;
11113;SDS011;5610;52.154;9.198;2022-11-15T11:03:27;2.27;;;1.80;;
11113;SDS011;5610;52.154;9.198;2022-11-15T11:06:15;2.90;;;2.47;;
11113;SDS011;5610;52.154;9.198;2022-11-15T11:09:02;3.00;;;2.30;;
11113;SDS011;5610;52.154;9.198;2022-11-15T11:11:49;3.43;;;2.50;;
11113;SDS011;5610;52.154;9.198;2022-11-15T11:14:37;2.73;;;1.87;;
11113;SDS011;5610;52.154;9.198;2022-11-15T11:17:26;2.90;;;2.40;;
11113;SDS011;5610;52.154;9.198;2022-11-15T11:20:20;2.73;;;2.37;;
11113;SDS011;5610;52.154;9.198;2022-11-15T11:23:16;2.13;;;1.73;;
11113;SDS011;5610;52.154;9.198;2022-11-15T11:26:12;2.57;;;2.37;;
11113;SDS011;5610;52.154;9.198;2022-11-15T11:29:17;4.13;;;2.07;;
11113;SDS011;5610;52.154;9.198;2022-11-15T11:32:14;2.90;;;2.30;;
11113;SDS011;5610;52.154;9.198;2022-11-15T11:35:11;3.67;;;2.50;;
11113;SDS011;5610;52.154;9.198;2022-11-15T11:38:02;3.37;;;2.50;;
11113;SDS011;5610;52.154;9.198;2022-11-15T11:41:03;3.87;;;2.43;;
11113;SDS011;5610;52.154;9.198;2022-11-15T11:43:57;3.23;;;2.03;;
11113;SDS011;5610;52.154;9.198;2022-11-15T11:46:53;2.80;;;2.40;;
11113;SDS011;5610;52.154;9.198;2022-11-15T11:49:43;5.20;;;2.43;;
11113;SDS011;5610;52.154;9.198;2022-11-15T11:52:34;3.50;;;2.60;;
11113;SDS011;5610;52.154;9.198;2022-11-15T11:55:26;2.70;;;2.50;;
11113;SDS011;5610;52.154;9.198;2022-11-15T11:58:17;2.60;;;2.33;;
11113;SDS011;5610;52.154;9.198;2022-11-15T12:01:09;3.93;;;2.70;;
11113;SDS011;5610;52.154;9.198;2022-11-15T12:03:59;3.17;;;2.83;;
11113;SDS011;5610;52.154;9.198;2022-11-15T12:06:51;2.97;;;2.20;;
11113;SDS011;5610;52.154;9.198;2022-11-15T12:09:43;2.53;;;2.33;;
11113;SDS011;5610;52.154;9.198;2022-11-15T12:12:43;2.50;;;2.30;;
11113;SDS011;5610;52.154;9.198;2022-11-15T12:15:35;3.00;;;2.30;;
11113;SDS011;5610;52.154;9.198;2022-11-15T12:18:25;2.30;;;2.10;;
11113;SDS011;5610;52.154;9.198;2022-11-15T12:21:13;3.60;;;2.20;;
11113;SDS011;5610;52.154;9.198;2022-11-15T12:24:04;2.70;;;2.50;;
11113;SDS011;5610;52.154;9.198;2022-11-15T12:26:54;3.57;;;2.40;;
11113;SDS011;5610;52.154;9.198;2022-11-15T12:29:46;3.00;;;2.10;;
11113;SDS011;5610;52.154;9.198;2022-11-15T12:32:35;3.50;;;2.70;;
11113;SDS011;5610;52.154;9.198;2022-11-15T12:35:26;3.20;;;2.73;;
11113;SDS011;5610;52.154;9.198;2022-11-15T12:38:22;2.20;;;2.00;;
11113;SDS011;5610;52.154;9.198;2022-11-15T12:41:41;2.37;;;2.07;;
11113;SDS011;5610;52.154;9.198;2022-11-15T12:47:44;2.40;;;1.97;;
11113;SDS011;5610;52.154;9.198;2022-11-15T12:53:38;3.30;;;2.00;;
11113;SDS011;5610;52.154;9.198;2022-11-15T12:56:23;2.50;;;2.30;;
11113;SDS011;5610;52.154;9.198;2022-11-15T12:59:09;2.77;;;2.00;;
11113;SDS011;5610;52.154;9.198;2022-11-15T13:01:58;3.63;;;2.43;;
11113;SDS011;5610;52.154;9.198;2022-11-15T13:04:44;2.50;;;2.30;;
11113;SDS011;5610;52.154;9.198;2022-11-15T13:07:55;2.33;;;1.93;;
11113;SDS011;5610;52.154;9.198;2022-11-15T13:10:42;4.20;;;2.27;;
11113;SDS011;5610;52.154;9.198;2022-11-15T13:13:42;2.10;;;1.90;;
11113;SDS011;5610;52.154;9.198;2022-11-15T13:16:29;2.20;;;1.93;;
11113;SDS011;5610;52.154;9.198;2022-11-15T13:19:24;2.10;;;1.90;;
11113;SDS011;5610;52.154;9.198;2022-11-15T13:22:09;4.40;;;2.03;;
11113;SDS011;5610;52.154;9.198;2022-11-15T13:25:16;2.63;;;2.43;;
11113;SDS011;5610;52.154;9.198;2022-11-15T13:28:10;2.90;;;2.27;;
11113;SDS011;5610;52.154;9.198;2022-11-15T13:31:12;2.27;;;2.07;;
11113;SDS011;5610;52.154;9.198;2022-11-15T13:34:14;3.00;;;2.30;;
11113;SDS011;5610;52.154;9.198;2022-11-15T13:37:09;3.00;;;2.70;;
11113;SDS011;5610;52.154;9.198;2022-11-15T13:43:23;2.03;;;1.93;;
11113;SDS011;5610;52.154;9.198;2022-11-15T13:46:16;2.73;;;2.23;;
11113;SDS011;5610;52.154;9.198;2022-11-15T13:49:03;4.13;;;2.70;;
11113;SDS011;5610;52.154;9.198;2022-11-15T13:51:51;2.40;;;2.20;;
11113;SDS011;5610;52.154;9.198;2022-11-15T13:54:39;2.57;;;2.37;;
11113;SDS011;5610;52.154;9.198;2022-11-15T13:57:28;3.20;;;2.33;;
11113;SDS011;5610;52.154;9.198;2022-11-15T14:00:26;3.80;;;2.40;;
11113;SDS011;5610;52.154;9.198;2022-11-15T14:03:18;2.83;;;2.30;;
11113;SDS011;5610;52.154;9.198;2022-11-15T14:06:06;2.40;;;2.20;;
11113;SDS011;5610;52.154;9.198;2022-11-15T14:09:01;4.10;;;2.30;;
11113;SDS011;5610;52.154;9.198;2022-11-15T14:12:28;3.87;;;3.00;;
11113;SDS011;5610;52.154;9.198;2022-11-15T14:15:19;3.40;;;3.03;;
11113;SDS011;5610;52.154;9.198;2022-11-15T14:18:38;4.43;;;2.73;;
11113;SDS011;5610;52.154;9.198;2022-11-15T14:21:28;3.20;;;2.83;;
11113;SDS011;5610;52.154;9.198;2022-11-15T14:24:13;3.33;;;3.03;;
11113;SDS011;5610;52.154;9.198;2022-11-15T14:30:04;3.30;;;3.00;;
11113;SDS011;5610;52.154;9.198;2022-11-15T14:32:49;3.43;;;3.10;;
11113;SDS011;5610;52.154;9.198;2022-11-15T14:35:37;3.50;;;3.20;;
11113;SDS011;5610;52.154;9.198;2022-11-15T14:38:22;6.20;;;2.97;;
11113;SDS011;5610;52.154;9.198;2022-11-15T14:41:10;3.90;;;3.60;;
11113;SDS011;5610;52.154;9.198;2022-11-15T14:44:05;3.97;;;3.20;;
11113;SDS011;5610;52.154;9.198;2022-11-15T14:46:51;4.03;;;3.33;;
11113;SDS011;5610;52.154;9.198;2022-11-15T14:49:36;4.03;;;3.27;;
11113;SDS011;5610;52.154;9.198;2022-11-15T14:52:26;3.53;;;3.23;;
11113;SDS011;5610;52.154;9.198;2022-11-15T14:55:15;3.83;;;3.40;;
11113;SDS011;5610;52.154;9.198;2022-11-15T14:58:03;4.67;;;3.00;;
11113;SDS011;5610;52.154;9.198;2022-11-15T15:00:51;4.00;;;3.23;;
11113;SDS011;5610;52.154;9.198;2022-11-15T15:03:36;3.57;;;3.27;;
11113;SDS011;5610;52.154;9.198;2022-11-15T15:06:21;3.20;;;3.00;;
11113;SDS011;5610;52.154;9.198;2022-11-15T15:09:09;4.93;;;2.80;;
11113;SDS011;5610;52.154;9.198;2022-11-15T15:11:54;5.57;;;2.80;;
11113;SDS011;5610;52.154;9.198;2022-11-15T15:14:39;2.73;;;2.50;;
11113;SDS011;5610;52.154;9.198;2022-11-15T15:17:24;3.60;;;3.20;;
11113;SDS011;5610;52.154;9.198;2022-11-15T15:20:09;3.30;;;3.00;;
11113;SDS011;5610;52.154;9.198;2022-11-15T15:22:55;6.50;;;3.80;;
11113;SDS011;5610;52.154;9.198;2022-11-15T15:25:42;2.67;;;2.47;;
11113;SDS011;5610;52.154;9.198;2022-11-15T15:28:27;5.10;;;2.83;;
11113;SDS011;5610;52.154;9.198;2022-11-15T15:31:12;4.17;;;2.90;;
11113;SDS011;5610;52.154;9.198;2022-11-15T15:33:57;5.63;;;3.27;;
11113;SDS011;5610;52.154;9.198;2022-11-15T15:36:43;8.30;;;4.27;;
11113;SDS011;5610;52.154;9.198;2022-11-15T15:39:29;4.23;;;3.93;;
11113;SDS011;5610;52.154;9.198;2022-11-15T15:42:17;4.60;;;4.20;;
11113;SDS011;5610;52.154;9.198;2022-11-15T15:45:03;5.87;;;3.90;;
11113;SDS011;5610;52.154;9.198;2022-11-15T15:47:49;4.00;;;3.70;;
11113;SDS011;5610;52.154;9.198;2022-11-15T15:50:35;4.27;;;3.90;;
11113;SDS011;5610;52.154;9.198;2022-11-15T15:53:21;5.07;;;4.67;;
11113;SDS011;5610;52.154;9.198;2022-11-15T15:56:06;6.17;;;4.47;;
11113;SDS011;5610;52.154;9.198;2022-11-15T15:58:53;5.60;;;4.17;;
11113;SDS011;5610;52.154;9.198;2022-11-15T16:01:39;3.77;;;3.47;;
11113;SDS011;5610;52.154;9.198;2022-11-15T16:04:24;5.57;;;4.73;;
11113;SDS011;5610;52.154;9.198;2022-11-15T16:07:12;5.93;;;4.97;;
11113;SDS011;5610;52.154;9.198;2022-11-15T16:10:14;8.40;;;7.50;;
11113;SDS011;5610;52.154;9.198;2022-11-15T16:13:03;7.00;;;5.97;;
11113;SDS011;5610;52.154;9.198;2022-11-15T16:15:50;5.93;;;4.37;;
11113;SDS011;5610;52.154;9.198;2022-11-15T16:18:37;5.50;;;4.30;;
11113;SDS011;5610;52.154;9.198;2022-11-15T16:21:22;5.07;;;4.63;;
11113;SDS011;5610;52.154;9.198;2022-11-15T16:24:08;19.20;;;13.57;;
11113;SDS011;5610;52.154;9.198;2022-11-15T16:26:53;48.13;;;31.20;;
11113;SDS011;5610;52.154;9.198;2022-11-15T16:29:38;16.60;;;13.93;;
11113;SDS011;5610;52.154;9.198;2022-11-15T16:32:25;18.10;;;15.00;;
11113;SDS011;5610;52.154;9.198;2022-11-15T16:35:11;13.00;;;11.47;;
11113;SDS011;5610;52.154;9.198;2022-11-15T16:37:57;13.37;;;10.30;;
11113;SDS011;5610;52.154;9.198;2022-11-15T16:40:41;10.40;;;8.30;;
11113;SDS011;5610;52.154;9.198;2022-11-15T16:43:27;8.57;;;7.70;;
11113;SDS011;5610;52.154;9.198;2022-11-15T16:46:13;11.13;;;10.03;;
11113;SDS011;5610;52.154;9.198;2022-11-15T16:49:01;10.83;;;9.80;;
11113;SDS011;5610;52.154;9.198;2022-11-15T16:51:48;8.07;;;7.40;;
11113;SDS011;5610;52.154;9.198;2022-11-15T16:54:34;7.57;;;6.73;;
11113;SDS011;5610;52.154;9.198;2022-11-15T16:57:19;7.87;;;7.17;;
11113;SDS011;5610;52.154;9.198;2022-11-15T17:00:04;7.17;;;6.47;;
11113;SDS011;5610;52.154;9.198;2022-11-15T17:02:50;8.70;;;7.90;;
11113;SDS011;5610;52.154;9.198;2022-11-15T17:05:38;9.00;;;7.50;;
11113;SDS011;5610;52.154;9.198;2022-11-15T17:08:23;7.03;;;6.33;;
11113;SDS011;5610;52.154;9.198;2022-11-15T17:11:08;9.10;;;7.77;;
11113;SDS011;5610;52.154;9.198;2022-11-15T17:13:56;9.10;;;8.17;;
11113;SDS011;5610;52.154;9.198;2022-11-15T17:16:42;10.03;;;7.47;;
11113;SDS011;5610;52.154;9.198;2022-11-15T17:19:27;8.53;;;7.63;;
11113;SDS011;5610;52.154;9.198;2022-11-15T17:22:14;10.83;;;9.63;;
11113;SDS011;5610;52.154;9.198;2022-11-15T17:24:59;12.40;;;10.07;;
11113;SDS011;5610;52.154;9.198;2022-11-15T17:27:45;7.67;;;5.90;;
11113;SDS011;5610;52.154;9.198;2022-11-15T17:30:30;7.30;;;5.93;;
11113;SDS011;5610;52.154;9.198;2022-11-15T17:33:16;8.37;;;7.50;;
11113;SDS011;5610;52.154;9.198;2022-11-15T17:36:01;7.90;;;6.67;;
11113;SDS011;5610;52.154;9.198;2022-11-15T17:38:49;8.30;;;7.30;;
11113;SDS011;5610;52.154;9.198;2022-11-15T17:41:35;8.13;;;7.27;;
11113;SDS011;5610;52.154;9.198;2022-11-15T17:44:20;8.10;;;7.40;;
11113;SDS011;5610;52.154;9.198;2022-11-15T17:47:06;8.87;;;8.07;;
11113;SDS011;5610;52.154;9.198;2022-11-15T17:49:52;10.33;;;7.00;;
11113;SDS011;5610;52.154;9.198;2022-11-15T17:52:37;8.20;;;6.97;;
11113;SDS011;5610;52.154;9.198;2022-11-15T17:55:23;7.40;;;6.60;;
11113;SDS011;5610;52.154;9.198;2022-11-15T17:58:08;9.23;;;7.80;;
11113;SDS011;5610;52.154;9.198;2022-11-15T18:00:53;9.43;;;7.10;;
11113;SDS011;5610;52.154;9.198;2022-11-15T18:03:38;7.30;;;6.60;;
11113;SDS011;5610;52.154;9.198;2022-11-15T18:06:24;7.93;;;7.17;;
11113;SDS011;5610;52.154;9.198;2022-11-15T18:09:09;7.73;;;6.90;;
11113;SDS011;5610;52.154;9.198;2022-11-15T18:11:57;8.63;;;7.83;;
11113;SDS011;5610;52.154;9.198;2022-11-15T18:14:42;14.10;;;11.93;;
11113;SDS011;5610;52.154;9.198;2022-11-15T18:17:27;19.83;;;16.33;;
11113;SDS011;5610;52.154;9.198;2022-11-15T18:20:13;15.07;;;12.90;;